Skip to Main Content

Video Notice: If you see just a black screen when trying to view Live Traffic cameras, please click inside the window to get video to play. An update to certain browsers is not allowing the video to auto-play when the window opens. 

SEARCH:
Location Air RH Dwp Precip Type Wind Speed Wind Gust Direction Pavement Temperature Date/Time
Hatem Bridge US 40 E/B 70 81 64 None 15 mph 22 mph SW 76 - 76 9/21/2018 2:15:00 PM
I-270 at I-370 71 80 65 None Calm 7 mph S 82 - 83 9/21/2018 2:15:00 PM
I-270 at MD-109 72 90 69 None Calm 8 mph W 82 - 83 9/21/2018 2:15:00 PM
I-495 at American Legion Bridge 72 77 65 None 7 mph 18 mph SE 86 - 86 9/21/2018 2:15:00 PM
I-68 at Savage Mt 80 64 67 None Calm 7 mph SE 97 - 98 9/21/2018 2:15:00 PM
I-68 at Sideling Hill 77 88 73 None Calm 7 mph E 92 - 92 9/21/2018 2:15:00 PM
I-68 at US 219 77 74 68 None 11 mph 22 mph SW 100 - 101 9/21/2018 2:15:00 PM
I-68 at WV Line - - - No Data Available - - No Data Available -
I-695 at I-83 70 82 65 None 6 mph 14 mph S 79 - 81 9/21/2018 2:15:00 PM
I-695 on FSK Bridge 71 86 67 None 17 mph 21 mph NW 78 - 78 9/21/2018 2:16:00 PM
I-70 at Fred-Wash Co. 68 99 68 None 4 mph 16 mph S 79 - 80 9/21/2018 2:15:00 PM
I-70 at I-695 72 83 66 None 4 mph 16 mph SW 75 - 85 9/21/2018 2:15:00 PM
I-70 at I-81 73 91 70 None 9 mph 15 mph S 92 - 92 9/21/2018 2:15:00 PM
I-70 at MD-27 70 92 68 None 6 mph 14 mph S 80 - 82 9/21/2018 2:15:00 PM
I-70 at MD-32 70 82 65 None 4 mph 16 mph SW 81 - 83 9/21/2018 2:15:00 PM
I-83 at MD-137 69 94 68 None Calm 10 mph E 78 - 78 9/21/2018 2:15:00 PM
I-95 at I-695 NE 71 81 65 None Calm 11 mph S 82 - 88 9/21/2018 2:16:00 PM
I-95 at Patuxent River 73 83 68 None 4 mph 12 mph W 83 - 84 9/21/2018 2:15:00 PM
I-95 at Tydings Bridge 71 80 64 None 5 mph 18 mph W 79 - 81 9/21/2018 2:15:00 PM
I-95/495 at I-295 76 80 69 None Calm 7 mph S 77 - 82 9/21/2018 2:15:00 PM
I-97 at MD-100 74 74 65 None 8 mph 15 mph S 85 - 88 9/21/2018 2:15:00 PM
I-97 at MD-32 72 79 66 None 4 mph 14 mph S 83 - 85 9/21/2018 2:15:00 PM
IS 70 W of I-270 - - - No Data Available - - No Data Available 84 - 84 9/21/2018 2:15:00 PM
MD 136 @ MD 646 68 94 66 No Data Available Calm 7 mph S 80 - 80 9/21/2018 2:15:00 PM
MD 20 at MD 21 72 80 65 None 7 mph 14 mph S 88 - 88 9/21/2018 2:15:00 PM
MD 23 at Meadowtree Road 68 91 65 No Data Available 6 mph 11 mph SE 78 - 78 9/21/2018 2:15:00 PM
MD 231 at Patuxent River 73 89 70 None 12 mph 15 mph S 81 - 84 9/21/2018 2:15:00 PM
MD 24 at Jarrettsville Road 69 88 66 No Data Available Calm 10 mph SE 82 - 82 9/21/2018 2:15:00 PM
MD 260 at Cox Rd 72 86 68 None Calm 10 mph W 82 - 82 9/21/2018 2:15:00 PM
MD-135 at Salt Dome 81 68 69 None 8 mph 16 mph W 109 - 109 9/21/2018 2:15:00 PM
MD-140 at MD-97 70 86 66 None 7 mph 14 mph SW 80 - 81 9/21/2018 2:15:00 PM
MD-200 EB at Bonifant Rd - - - No Data Available - - No Data Available -
MD-200 WB at Muncaster Mill Rd 71 79 64 None 4 mph 11 mph SE 83 - 86 9/21/2018 2:15:00 PM
MD-213 at Sassafras River 75 79 68 None 8 mph 16 mph S 87 - 87 9/21/2018 2:15:00 PM
MD-24 at Rock St Park 71 93 69 None Calm 6 mph NE 76 - 76 9/21/2018 2:15:00 PM
MD-30 at PA Line 68 97 67 None 4 mph 11 mph SE 82 - 82 9/21/2018 2:15:00 PM
MD-33 at Knapps Narrows Drawbridge 73 82 67 None 4 mph 11 mph S 82 - 82 9/21/2018 2:15:00 PM
MD-344 at MD-224 72 89 69 None Calm Calm N 85 - 85 9/21/2018 2:15:00 PM
MD-4 at Patuxent River 78 81 72 None 13 mph 16 mph SE 86 - 90 9/21/2018 2:16:00 PM
MD-404 at Choptank River 74 77 67 None Calm 6 mph S 83 - 85 9/21/2018 2:15:00 PM
MD-43 at MD-150 72 91 69 None 10 mph 19 mph SW 82 - 84 9/21/2018 2:15:00 PM
MD-51 at Oldtown Salt Dome 87 66 75 None 9 mph 17 mph S 117 - 117 9/21/2018 2:15:00 PM
MD-64 at MD-418 73 84 68 None 7 mph 13 mph S 93 - 93 9/21/2018 2:15:00 PM
US 301 at MD 305 74 77 67 None 7 mph 12 mph S 89 - 90 9/21/2018 2:15:00 PM
US-1 at Baltimore / Harford Co. Line 71 85 66 None Calm 9 mph S 79 - 79 9/21/2018 2:15:00 PM
US-1 at Conowingo Dam 70 93 68 None 6 mph 11 mph SW 80 - 80 9/21/2018 2:15:00 PM
US-13 at US-113 76 67 65 None 8 mph 12 mph S 101 - 101 9/21/2018 2:15:00 PM
US-13 at US-50 76 68 65 None 9 mph 14 mph S 90 - 90 9/21/2018 2:15:00 PM
US-15 at MD-140 70 86 66 None 5 mph 14 mph S 77 - 80 9/21/2018 2:15:00 PM
US-301 at MD-5 72 90 69 None 6 mph 10 mph SE 82 - 83 9/21/2018 2:15:00 PM
US-301 at Potomac 76 83 71 None 9 mph 14 mph S 89 - 89 9/21/2018 2:16:00 PM
US-340 at MD-180 71 86 66 None 4 mph 12 mph S 82 - 82 9/21/2018 2:15:00 PM
US-50 at Choptank 75 84 70 None Calm 12 mph S 85 - 88 9/21/2018 2:15:00 PM
US-50 at I-95 73 89 70 None Calm 7 mph SE 81 - 83 9/21/2018 2:15:00 PM
US-50 at MD-2 72 96 70 None 6 mph 14 mph S 80 - 81 9/21/2018 2:15:00 PM
US-50 at MD-331 77 70 67 None 7 mph 15 mph SW 90 - 94 9/21/2018 2:15:00 PM
US-50 at OC Drawbridge 74 76 66 None Calm 11 mph S 98 - 98 9/21/2018 2:15:00 PM
US-50 at Table Rock Rd 78 73 68 None 4 mph 10 mph W 114 - 114 9/21/2018 2:15:00 PM
US-50 Kent Narrow Bridge 74 90 71 None 8 mph 16 mph S 79 - 82 9/21/2018 2:15:00 PM
WPL Pier 31 71 91 68 None Calm 11 mph E 83 - 83 9/21/2018 2:15:00 PM
Location Air RH Dwp Precip Type Wind Speed Wind Gust Direction Pavement Temperature Date/Time